Nashville, Tennessee
Traffic Map
Current Weather Conditions
Nashville, Tennessee
Broken Clouds
Broken Clouds
78°
Feels Like: 80°
Wind Chill: 78° Ceiling: 2800
Heat Index: 80° Visibility: 10mi
Dew Point: 68° Wind: 17mph
Humidity: 71% Direction: 180° (S)
Pressure: 30.09in Gusts: 25mph
Raw Report DataKBNA 261553Z 18015G22KT 10SM BKN028 BKN035 BKN046 26/20 A3009 RMK AO2 SLP185 T02560200
Traffic Incident Summary
Active as of:
Severity:
Category:
InformationThere was an issue retrieving the traffic information for this location. Please try a different location or try again shortly.
Advertisements
Track Severe Weather on mobile